Time;durP1;ratioP1;P1;durP2;ratioP2;P2;SDS_P1;SDS_P2;PMS_P1;PMS_P2;Temp;Humidity;BMP_temperature;BMP_pressure;BME280_temperature;BME280_humidity;BME280_pressure;Samples;Min_cycle;Max_cycle;Signal;HPM_P1;HPM_P2
2021/04/27 04:54:11;;;;;;;13.60;7.05;;;;;;;7.93;80.70;98818.86;1746775;78;21211;31
2021/04/27 05:44:56;;;;;;;;;;;;;;;8.11;78.65;98803.86;1748423;78;21216;-92
2021/04/27 05:47:26;;;;;;;12.95;6.60;;;;;;;8.17;80.58;98803.73;1743879;81;20268;-92
2021/04/27 05:49:56;;;;;;;14.63;6.97;;;;;;;8.24;77.26;98801.90;1737049;80;21161;-93
2021/04/27 05:52:31;;;;;;;15.60;7.53;;;;;;;8.22;77.87;98801.92;1769705;77;21336;-90
2021/04/27 05:55:12;;;;;;;24.27;10.82;;;;;;;8.22;77.97;98804.51;1784698;78;21248;31
2021/04/27 05:57:48;;;;;;;12.30;7.05;;;;;;;8.27;77.78;98799.23;1681525;85;21188;-92
2021/04/27 06:00:40;;;;;;;12.28;7.33;;;;;;;8.30;79.02;98797.88;1705308;83;21253;-94
2021/04/27 06:03:51;;;;;;;15.43;7.80;;;;;;;8.24;79.89;98798.86;1700165;78;21265;-94
2021/04/27 06:06:35;;;;;;;16.12;8.13;;;;;;;8.30;76.79;98804.36;1732781;80;21917;-92
2021/04/27 06:12:21;;;;;;;16.57;7.15;;;;;;;8.33;79.74;98796.51;1762136;79;21200;-91
2021/04/27 06:14:49;;;;;;;18.42;7.03;;;;;;;8.31;78.99;98791.35;1760326;78;21308;-91
2021/04/27 06:17:16;;;;;;;15.85;7.40;;;;;;;8.33;79.67;98795.21;1758369;80;21239;-94
2021/04/27 06:23:01;;;;;;;14.43;6.85;;;;;;;8.49;78.51;98787.55;1732915;83;21155;-92
2021/04/27 06:25:28;;;;;;;14.47;7.10;;;;;;;8.63;77.74;98794.18;1723712;83;21714;-87
2021/04/27 06:27:56;;;;;;;14.13;7.20;;;;;;;8.71;78.68;98794.44;1777897;79;21277;-91
2021/04/27 06:30:24;;;;;;;14.85;6.83;;;;;;;8.84;78.81;98800.19;1766168;79;21315;-91
2021/04/27 06:36:04;;;;;;;15.25;7.08;;;;;;;9.09;78.50;98799.60;1772064;77;21191;-92
2021/04/27 06:38:32;;;;;;;17.75;6.78;;;;;;;9.20;78.21;98800.66;1765282;79;21613;-93
2021/04/27 06:41:00;;;;;;;13.90;6.58;;;;;;;9.21;77.10;98803.64;1802881;80;21442;-94
2021/04/27 06:43:28;;;;;;;15.10;7.83;;;;;;;9.21;77.22;98807.12;1788039;80;21692;-94
2021/04/27 06:45:56;;;;;;;16.10;6.83;;;;;;;9.30;77.34;98796.95;1736240;82;21315;-92
2021/04/27 06:48:24;;;;;;;13.18;6.20;;;;;;;9.33;76.25;98802.92;1806718;79;21270;-91
2021/04/27 06:50:51;;;;;;;13.72;6.80;;;;;;;9.36;77.16;98798.94;1797558;79;21266;-93
2021/04/27 06:53:19;;;;;;;14.40;7.35;;;;;;;9.37;76.71;98798.52;1804627;79;21272;-94
2021/04/27 07:02:20;;;;;;;16.25;6.78;;;;;;;9.34;76.26;98813.69;1765267;79;22480;31
2021/04/27 07:04:48;;;;;;;11.80;5.90;;;;;;;9.41;76.53;98816.12;1737462;81;21117;-89
2021/04/27 07:07:20;;;;;;;12.53;6.28;;;;;;;9.52;74.22;98820.16;1726773;78;21172;31
2021/04/27 07:09:48;;;;;;;15.55;6.22;;;;;;;9.44;76.05;98828.59;1710317;83;21268;-92
2021/04/27 07:12:17;;;;;;;15.65;6.20;;;;;;;9.46;76.41;98834.59;1696792;84;21225;-94
2021/04/27 07:15:15;;;;;;;12.28;6.53;;;;;;;9.49;76.31;98829.76;1774553;78;21215;-92
2021/04/27 07:17:48;;;;;;;11.50;5.70;;;;;;;9.49;75.28;98834.53;1758262;81;21160;-92
2021/04/27 07:20:27;;;;;;;10.38;5.65;;;;;;;9.54;74.28;98834.41;1796398;79;21330;31
2021/04/27 07:22:58;;;;;;;17.02;6.53;;;;;;;9.43;75.33;98827.32;1735142;81;21633;-90
2021/04/27 07:25:26;;;;;;;21.73;6.75;;;;;;;9.44;76.82;98832.94;1736022;79;21271;-92
2021/04/27 07:27:54;;;;;;;10.98;5.50;;;;;;;9.50;76.34;98838.81;1770568;79;21106;-86
2021/04/27 07:30:40;;;;;;;13.65;6.30;;;;;;;9.54;75.07;98839.14;1758743;77;21247;31
2021/04/27 07:33:07;;;;;;;14.33;6.03;;;;;;;9.39;75.08;98843.85;1651389;86;21151;-92
2021/04/27 07:35:35;;;;;;;10.18;5.60;;;;;;;9.35;75.09;98845.66;1673701;86;21201;-92
2021/04/27 07:38:04;;;;;;;14.68;6.35;;;;;;;9.41;74.47;98849.86;1732380;77;21327;-93
2021/04/27 07:43:42;;;;;;;10.43;6.25;;;;;;;9.45;74.46;98856.67;1665365;85;21127;-93
2021/04/27 07:49:45;;;;;;;10.82;6.25;;;;;;;9.40;73.97;98858.55;1769600;77;22417;31
2021/04/27 07:52:13;;;;;;;11.73;5.90;;;;;;;9.34;74.61;98851.76;1754292;77;21311;-84
2021/04/27 07:55:05;;;;;;;12.18;6.67;;;;;;;9.43;74.19;98857.16;1782246;78;21355;31
2021/04/27 07:57:33;;;;;;;10.20;5.83;;;;;;;9.32;74.11;98864.77;1766774;78;21254;-93
2021/04/27 08:00:01;;;;;;;17.90;6.05;;;;;;;9.25;73.97;98855.86;1784483;78;21399;-93
2021/04/27 08:02:33;;;;;;;10.50;6.00;;;;;;;9.24;73.18;98857.61;1746950;79;21186;-93
2021/04/27 08:17:48;;;;;;;13.95;6.47;;;;;;;9.55;75.22;98865.52;1745284;77;22453;-93
2021/04/27 08:20:17;;;;;;;11.12;6.25;;;;;;;9.62;72.80;98865.36;1729008;78;21201;-88
2021/04/27 08:22:48;;;;;;;12.00;5.47;;;;;;;9.59;74.00;98872.79;1746449;78;21212;-91
2021/04/27 08:25:34;;;;;;;10.05;5.28;;;;;;;9.63;73.71;98873.12;1695871;84;21132;-94
2021/04/27 08:28:02;;;;;;;10.40;5.20;;;;;;;9.69;72.92;98869.52;1713383;84;21232;-96
2021/04/27 08:33:47;;;;;;;9.35;4.80;;;;;;;9.63;73.49;98880.03;1709229;79;21206;-94
2021/04/27 08:36:35;;;;;;;14.75;5.10;;;;;;;9.61;73.29;98871.42;1719149;79;21304;31
2021/04/27 08:39:03;;;;;;;6.72;3.87;;;;;;;9.62;73.12;98881.78;1638768;85;21322;-95
2021/04/27 08:41:48;;;;;;;10.38;5.08;;;;;;;9.62;71.99;98879.19;1609847;88;21353;-93
2021/04/27 08:44:41;;;;;;;15.18;7.12;;;;;;;9.66;72.45;98873.02;1643333;82;21130;-95
2021/04/27 08:47:24;;;;;;;12.80;6.35;;;;;;;9.51;71.63;98838.36;1736791;79;21170;-88
2021/04/27 08:49:52;;;;;;;12.90;6.40;;;;;;;9.75;71.69;98873.26;1699541;80;21328;-91
2021/04/27 08:52:21;;;;;;;14.53;6.22;;;;;;;9.79;71.97;98867.52;1680579;82;21266;-93
2021/04/27 08:55:01;;;;;;;11.03;5.72;;;;;;;9.80;73.52;98862.75;1685144;81;21184;31
2021/04/27 08:57:29;;;;;;;9.83;4.90;;;;;;;9.87;72.53;98869.05;1650784;83;21306;-93
2021/04/27 08:59:58;;;;;;;10.43;5.55;;;;;;;9.93;72.24;98875.38;1687851;81;21154;-91
2021/04/27 09:08:58;;;;;;;8.43;5.05;;;;;;;9.82;70.79;98873.94;1770156;78;21168;-92
2021/04/27 09:14:38;;;;;;;10.43;5.65;;;;;;;9.84;70.85;98866.97;1605180;86;21213;-94
2021/04/27 09:20:26;;;;;;;11.80;6.40;;;;;;;9.87;71.57;98866.91;1588441;89;21323;-93
2021/04/27 09:39:04;;;;;;;286.92;91.08;;;;;;;10.30;71.51;98873.11;1643245;84;21198;-93
2021/04/27 09:41:32;;;;;;;100.35;35.60;;;;;;;10.39;69.99;98875.08;1691988;84;21355;-91
2021/04/27 09:44:00;;;;;;;135.70;45.08;;;;;;;10.36;69.89;98878.59;1703792;84;21181;-93
2021/04/27 09:46:27;;;;;;;27.52;12.10;;;;;;;10.39;69.78;98868.13;1684947;84;21253;-94
2021/04/27 09:51:36;;;;;;;185.40;69.50;;;;;;;10.42;69.80;98861.52;1804183;77;23123;-86
2021/04/27 09:54:09;;;;;;;117.65;40.80;;;;;;;10.34;69.54;98870.86;1751042;77;21325;-88
2021/04/27 09:56:50;;;;;;;37.65;16.00;;;;;;;10.32;69.52;98867.88;1699778;81;21276;-86
2021/04/27 09:59:28;;;;;;;12.33;6.67;;;;;;;10.31;69.87;98864.43;1736350;81;21239;-86
2021/04/27 10:02:22;;;;;;;30.25;13.48;;;;;;;10.37;68.98;98859.97;1734809;81;21278;-85
2021/04/27 10:04:51;;;;;;;26.40;13.30;;;;;;;10.37;68.92;98863.88;1705736;83;21160;-81
2021/04/27 10:07:18;;;;;;;28.55;12.95;;;;;;;10.39;69.32;98860.78;1728655;78;23074;-81
2021/04/27 10:09:47;;;;;;;30.90;14.55;;;;;;;10.43;69.67;98867.14;1788361;79;21174;-87
2021/04/27 10:12:15;;;;;;;17.90;8.38;;;;;;;10.46;69.56;98859.23;1770947;78;21354;-86
2021/04/27 10:14:42;;;;;;;19.02;8.00;;;;;;;10.52;68.42;98864.29;1753614;80;21186;-92
2021/04/27 10:17:17;;;;;;;16.45;7.03;;;;;;;10.49;68.20;98860.47;1822698;77;21270;-83
2021/04/27 10:19:40;;;;;;;14.20;7.40;;;;;;;10.49;67.92;98857.86;1722301;82;21160;-85
2021/04/27 10:22:11;;;;;;;15.90;8.48;;;;;;;10.50;68.53;98858.28;1759034;80;21480;-82
2021/04/27 10:24:39;;;;;;;18.35;7.72;;;;;;;10.57;68.84;98863.30;1759667;80;21312;-82
2021/04/27 10:27:07;;;;;;;14.20;9.00;;;;;;;10.69;68.66;98852.55;1755299;80;21163;-84
2021/04/27 10:29:35;;;;;;;21.87;9.63;;;;;;;10.79;68.89;98858.33;1763807;80;21284;-84
2021/04/27 10:32:26;;;;;;;16.60;8.13;;;;;;;10.88;68.49;98861.51;1759691;82;21318;-84
2021/04/27 10:35:03;;;;;;;17.60;8.10;;;;;;;10.96;67.88;98866.45;1753172;80;21191;-85
2021/04/27 10:38:00;;;;;;;14.78;8.18;;;;;;;10.98;67.57;98862.51;1748553;80;21713;-82
2021/04/27 10:40:59;;;;;;;18.87;8.75;;;;;;;11.03;67.34;98859.33;1748841;82;21147;-83
2021/04/27 10:43:38;;;;;;;21.40;8.60;;;;;;;11.11;67.89;98849.54;1766676;80;21250;-85
2021/04/27 10:46:29;;;;;;;16.62;7.28;;;;;;;11.26;67.93;98849.48;1763985;80;21799;-80
2021/04/27 10:49:27;;;;;;;15.05;7.00;;;;;;;11.33;67.19;98849.25;1785083;80;21191;-82
2021/04/27 10:51:57;;;;;;;17.95;6.83;;;;;;;11.40;66.83;98842.54;1754086;80;21284;-82
2021/04/27 10:54:35;;;;;;;8.73;5.70;;;;;;;11.50;66.73;98833.09;1761564;80;21305;-80
2021/04/27 10:57:10;;;;;;;12.90;6.62;;;;;;;11.65;66.20;98838.69;1760659;80;21175;-80
2021/04/27 11:02:37;;;;;;;14.03;6.30;;;;;;;11.90;62.92;98829.63;1808838;78;22962;-85
2021/04/27 11:05:21;;;;;;;21.25;5.90;;;;;;;12.00;63.48;98831.01;1740956;81;21193;-85
2021/04/27 11:08:11;;;;;;;8.53;4.85;;;;;;;12.16;60.51;98839.13;1790583;79;21145;-83
2021/04/27 11:10:44;;;;;;;11.83;4.53;;;;;;;12.26;57.58;98834.45;1772514;79;21603;-82
2021/04/27 11:13:13;;;;;;;23.30;5.42;;;;;;;12.12;55.06;98837.09;1801083;79;21273;-85
2021/04/27 11:15:44;;;;;;;14.63;6.30;;;;;;;12.20;59.47;98834.67;1799779;79;21310;-84
2021/04/27 11:18:20;;;;;;;13.83;5.40;;;;;;;12.16;58.77;98835.69;1795686;79;21165;-82
2021/04/27 11:21:12;;;;;;;11.15;5.17;;;;;;;12.14;58.82;98832.66;1791381;79;21295;-79
2021/04/27 11:23:53;;;;;;;11.20;5.03;;;;;;;12.14;58.37;98822.70;1799549;79;21284;-81
2021/04/27 11:26:38;;;;;;;9.73;4.67;;;;;;;12.27;57.44;98821.80;1807562;79;21298;-79
2021/04/27 11:29:16;;;;;;;11.73;5.40;;;;;;;12.41;58.48;98823.90;1797095;79;21181;-83
2021/04/27 11:32:07;;;;;;;8.93;4.47;;;;;;;12.58;56.70;98822.83;1811667;79;21470;-82
2021/04/27 11:34:54;;;;;;;10.70;4.03;;;;;;;12.78;56.24;98820.77;1783958;79;21291;-80
2021/04/27 11:37:57;;;;;;;9.88;4.72;;;;;;;12.78;53.57;98821.22;1759155;81;21169;-81
2021/04/27 11:40:36;;;;;;;9.53;4.03;;;;;;;12.74;55.27;98822.63;1750935;81;21527;-85
2021/04/27 11:43:12;;;;;;;8.85;4.05;;;;;;;12.91;53.88;98813.30;1748227;81;21291;-81
2021/04/27 11:45:49;;;;;;;11.50;4.28;;;;;;;12.95;55.16;98820.09;1734505;82;21166;-82
2021/04/27 11:48:20;;;;;;;13.60;4.83;;;;;;;13.19;56.14;98813.08;1758401;80;21182;-82
2021/04/27 11:50:50;;;;;;;8.23;4.40;;;;;;;13.19;54.11;98822.21;1758377;81;21162;-81
2021/04/27 11:53:26;;;;;;;11.03;4.35;;;;;;;13.03;53.35;98815.88;1747146;81;21177;-83
2021/04/27 11:55:58;;;;;;;10.70;4.70;;;;;;;13.02;54.18;98815.50;1745402;81;21149;-82
2021/04/27 11:58:35;;;;;;;14.93;5.72;;;;;;;13.07;55.93;98806.59;1743749;81;21291;-86
2021/04/27 12:01:07;;;;;;;20.97;5.40;;;;;;;13.09;56.87;98805.20;1795096;78;21461;-80
2021/04/27 12:03:40;;;;;;;14.40;4.78;;;;;;;13.12;56.09;98807.70;1813519;78;21157;-88
2021/04/27 12:06:17;;;;;;;10.03;4.28;;;;;;;13.14;55.54;98812.40;1820344;78;21314;-80
2021/04/27 12:08:52;;;;;;;12.70;5.15;;;;;;;13.09;55.64;98815.20;1747626;82;21161;-83
2021/04/27 12:11:30;;;;;;;11.35;4.87;;;;;;;12.87;56.67;98803.46;1773130;80;21216;-80
2021/04/27 12:14:03;;;;;;;12.18;5.62;;;;;;;12.90;56.89;98807.23;1765099;80;21177;-80
2021/04/27 12:16:43;;;;;;;32.38;6.55;;;;;;;12.79;58.21;98805.95;1758279;80;21197;-82
2021/04/27 12:19:18;;;;;;;12.30;4.67;;;;;;;12.87;57.54;98799.98;1722897;82;21159;-82
2021/04/27 12:22:07;;;;;;;15.20;5.83;;;;;;;12.86;57.24;98797.83;1730735;82;21157;-81
2021/04/27 12:24:42;;;;;;;17.42;5.45;;;;;;;12.86;57.03;98800.44;1749740;81;21168;-83
2021/04/27 12:27:18;;;;;;;18.32;5.50;;;;;;;12.82;57.15;98801.94;1780325;79;21639;-81
2021/04/27 12:29:58;;;;;;;19.17;7.05;;;;;;;12.72;57.43;98799.67;1777299;79;21158;-81
2021/04/27 12:32:29;;;;;;;13.08;6.37;;;;;;;12.70;57.85;98796.73;1775239;79;21145;-80
2021/04/27 12:35:20;;;;;;;20.45;8.20;;;;;;;12.61;58.09;98794.47;1754450;80;21162;-80
2021/04/27 12:38:08;;;;;;;16.62;5.80;;;;;;;12.60;58.00;98798.00;1746482;81;21255;-85
2021/04/27 12:40:43;;;;;;;14.33;5.67;;;;;;;12.54;58.13;98797.31;1756426;81;21303;-82
2021/04/27 12:43:13;;;;;;;9.45;5.67;;;;;;;12.50;57.89;98790.52;1751529;81;21597;-81
2021/04/27 12:45:52;;;;;;;13.43;5.00;;;;;;;12.43;57.22;98795.55;1731284;82;22309;-82
2021/04/27 12:48:21;;;;;;;11.97;5.85;;;;;;;12.37;57.49;98793.64;1743206;81;21292;-80
2021/04/27 12:51:03;;;;;;;12.98;5.50;;;;;;;12.28;58.00;98778.73;1754170;81;21154;-86
2021/04/27 12:53:42;;;;;;;14.85;5.45;;;;;;;12.18;58.06;98793.02;1752361;80;21157;-83
2021/04/27 12:56:16;;;;;;;12.10;6.08;;;;;;;12.12;58.32;98785.42;1745256;82;21299;-81
2021/04/27 12:58:46;;;;;;;12.47;5.53;;;;;;;12.02;59.42;98781.00;1758131;78;21325;-85
2021/04/27 13:01:23;;;;;;;11.08;5.83;;;;;;;11.96;59.04;98782.95;1750283;81;21147;-84
2021/04/27 13:03:57;;;;;;;10.75;5.08;;;;;;;12.01;58.51;98778.44;1747853;80;21160;-83
2021/04/27 13:06:38;;;;;;;11.57;5.72;;;;;;;12.01;58.94;98777.98;1762259;81;22454;-82
2021/04/27 13:09:12;;;;;;;13.75;5.97;;;;;;;12.05;58.33;98784.78;1748793;80;21167;-85
2021/04/27 13:11:43;;;;;;;17.95;6.28;;;;;;;12.08;58.95;98781.23;1695902;79;21291;-89
2021/04/27 13:14:25;;;;;;;15.63;6.50;;;;;;;12.16;58.66;98787.02;1684880;84;21192;-86
2021/04/27 13:16:52;;;;;;;13.22;6.60;;;;;;;12.13;58.72;98784.05;1677193;84;21354;-81
2021/04/27 13:19:20;;;;;;;20.40;6.47;;;;;;;12.03;59.36;98785.28;1688364;84;21119;-84
2021/04/27 13:22:15;;;;;;;17.73;7.20;;;;;;;12.08;59.00;98785.98;1688090;82;21146;-85
2021/04/27 13:24:48;;;;;;;12.53;6.12;;;;;;;11.87;59.59;98763.27;1696397;84;21161;-85
2021/04/27 13:27:27;;;;;;;18.52;6.35;;;;;;;12.07;59.55;98776.45;1664641;85;21104;-85
2021/04/27 13:30:22;;;;;;;15.20;6.25;;;;;;;12.18;59.08;98768.27;1657462;84;21282;-84
2021/04/27 13:33:05;;;;;;;;;;;;;;;12.27;59.33;98763.15;1643006;86;21344;-86
2021/04/27 13:35:48;;;;;;;15.85;9.00;;;;;;;12.40;59.35;98768.31;1692260;84;20236;-87
2021/04/27 13:38:30;;;;;;;14.80;6.80;;;;;;;12.48;59.61;98762.34;1681481;84;21429;-80
2021/04/27 13:41:01;;;;;;;16.95;6.33;;;;;;;12.43;59.90;98765.56;1683444;84;21159;-82
2021/04/27 13:43:34;;;;;;;13.03;6.20;;;;;;;12.51;59.13;98763.98;1677424;84;21306;-82
2021/04/27 13:46:05;;;;;;;14.47;6.25;;;;;;;12.61;58.25;98753.58;1657477;85;21202;-84
2021/04/27 13:48:35;;;;;;;21.25;6.83;;;;;;;12.58;57.87;98752.88;1678069;84;21316;-84
2021/04/27 13:51:10;;;;;;;20.37;6.40;;;;;;;12.61;58.43;98750.14;1653662;85;21195;-79
2021/04/27 13:53:39;;;;;;;11.28;5.40;;;;;;;12.51;58.72;98743.99;1640309;85;21567;-81
2021/04/27 13:56:14;;;;;;;12.43;5.40;;;;;;;12.73;58.13;98744.00;1676319;84;21181;-81
2021/04/27 13:58:41;;;;;;;17.82;6.78;;;;;;;12.75;57.72;98742.61;1683827;84;21533;-79
2021/04/27 14:01:09;;;;;;;14.28;5.67;;;;;;;12.97;57.94;98738.72;1683675;83;21212;-83
2021/04/27 14:03:36;;;;;;;15.40;5.97;;;;;;;13.19;57.54;98739.99;1650135;85;21214;-81
2021/04/27 14:06:04;;;;;;;10.32;5.50;;;;;;;13.44;56.49;98740.29;1684180;84;21394;-82
2021/04/27 14:08:31;;;;;;;9.83;5.60;;;;;;;13.85;54.74;98735.05;1674919;83;21197;-81
2021/04/27 14:10:59;;;;;;;15.45;5.70;;;;;;;14.20;54.66;98729.98;1688807;82;21197;-82
2021/04/27 14:13:26;;;;;;;14.60;6.50;;;;;;;14.48;54.97;98738.27;1686971;84;21936;-82
2021/04/27 14:15:54;;;;;;;10.65;5.17;;;;;;;14.44;53.68;98732.80;1683050;83;21187;-81
2021/04/27 14:18:21;;;;;;;14.23;5.90;;;;;;;14.52;53.23;98734.59;1686600;84;21144;-85
2021/04/27 14:20:49;;;;;;;13.03;6.03;;;;;;;14.57;54.27;98733.56;1678823;84;21604;-81
2021/04/27 14:23:18;;;;;;;13.22;5.90;;;;;;;14.57;54.19;98731.78;1675575;84;21218;-80
2021/04/27 14:25:46;;;;;;;9.45;5.42;;;;;;;14.49;54.04;98729.95;1678662;84;21220;-81
2021/04/27 14:28:15;;;;;;;10.50;5.47;;;;;;;14.31;53.75;98732.97;1649887;85;21676;-83
2021/04/27 14:30:44;;;;;;;8.90;5.37;;;;;;;14.24;53.95;98732.84;1675293;84;21216;-83
2021/04/27 14:33:13;;;;;;;13.62;5.87;;;;;;;14.14;53.89;98735.03;1683905;84;21185;-81
2021/04/27 14:35:42;;;;;;;12.33;5.15;;;;;;;14.10;53.94;98735.63;1644717;84;21179;-81
2021/04/27 14:38:11;;;;;;;11.33;4.90;;;;;;;13.97;53.77;98747.56;1679956;84;21671;-82
2021/04/27 14:40:39;;;;;;;10.38;4.90;;;;;;;13.88;53.53;98744.04;1691779;84;21185;-83
2021/04/27 14:43:09;;;;;;;12.35;5.92;;;;;;;13.84;53.61;98739.87;1675881;84;22045;-81
2021/04/27 14:45:37;;;;;;;11.95;5.95;;;;;;;13.84;52.98;98737.25;1687463;84;22026;-81
2021/04/27 14:48:10;;;;;;;13.70;6.15;;;;;;;13.95;53.98;98738.08;1673674;84;21803;-81
2021/04/27 14:50:38;;;;;;;11.70;5.40;;;;;;;14.03;53.85;98732.08;1685934;84;21548;-80
2021/04/27 14:53:07;;;;;;;10.40;5.37;;;;;;;14.00;54.10;98723.89;1693600;84;21205;-81
2021/04/27 14:55:35;;;;;;;9.15;5.00;;;;;;;13.98;53.23;98727.03;1679457;84;21320;-82
2021/04/27 14:58:03;;;;;;;11.65;4.85;;;;;;;13.97;52.28;98723.20;1675575;84;21319;-81
2021/04/27 15:00:30;;;;;;;8.70;5.45;;;;;;;13.91;52.58;98721.24;1678213;84;21168;-82
2021/04/27 15:02:58;;;;;;;12.37;5.53;;;;;;;13.81;52.20;98723.04;1683571;84;21544;-82
2021/04/27 15:05:26;;;;;;;11.50;5.53;;;;;;;13.88;52.57;98724.44;1676106;84;21663;-82
2021/04/27 15:07:55;;;;;;;8.65;5.65;;;;;;;13.96;52.81;98719.72;1653709;86;21489;-82
2021/04/27 15:10:24;;;;;;;12.10;5.80;;;;;;;13.90;52.66;98716.91;1680391;84;21216;-81
2021/04/27 15:12:53;;;;;;;7.00;4.87;;;;;;;13.95;52.88;98710.63;1688901;82;21173;-83
2021/04/27 15:15:21;;;;;;;10.78;5.50;;;;;;;14.10;52.74;98712.09;1679921;84;21195;-82
2021/04/27 15:17:49;;;;;;;14.80;5.28;;;;;;;14.17;52.28;98711.84;1688389;84;21180;-82
2021/04/27 15:20:19;;;;;;;14.47;5.95;;;;;;;14.21;52.67;98710.78;1653695;86;21327;-81
2021/04/27 15:22:49;;;;;;;15.45;6.45;;;;;;;14.11;52.18;98705.13;1675981;84;21203;-82
2021/04/27 15:25:19;;;;;;;13.32;5.92;;;;;;;14.25;51.88;98710.56;1686807;84;21203;-81
2021/04/27 15:27:46;;;;;;;18.67;6.20;;;;;;;14.12;52.17;98705.06;1646846;85;21202;-82
2021/04/27 15:30:16;;;;;;;10.53;5.58;;;;;;;14.13;52.43;98706.74;1661617;85;21182;-82
2021/04/27 15:32:46;;;;;;;14.18;5.92;;;;;;;14.06;51.17;98707.92;1646960;85;21190;-82
2021/04/27 15:35:17;;;;;;;8.05;4.72;;;;;;;14.00;51.85;98704.29;1678001;84;21367;-80
2021/04/27 15:37:48;;;;;;;15.13;5.10;;;;;;;13.91;51.32;98706.03;1675295;84;21667;-81
2021/04/27 15:40:20;;;;;;;11.80;6.30;;;;;;;13.70;51.82;98704.73;1672896;84;21183;-82
2021/04/27 15:42:52;;;;;;;13.62;5.85;;;;;;;13.60;52.23;98703.92;1645078;85;21183;-81
2021/04/27 15:45:21;;;;;;;13.78;6.22;;;;;;;13.53;52.20;98706.80;1683799;84;21325;-83
2021/04/27 15:47:50;;;;;;;7.80;5.12;;;;;;;13.45;52.64;98698.88;1681381;84;21189;-81
2021/04/27 15:50:22;;;;;;;10.75;4.97;;;;;;;13.27;52.79;98701.36;1673757;84;21628;-79
2021/04/27 15:52:50;;;;;;;11.57;5.70;;;;;;;13.35;52.83;98702.38;1687339;84;22264;-81
2021/04/27 15:55:19;;;;;;;10.68;5.00;;;;;;;13.29;52.88;98702.17;1674152;82;21209;-79
2021/04/27 15:57:48;;;;;;;14.28;5.37;;;;;;;13.23;52.93;98698.92;1689627;84;21192;-80
2021/04/27 16:00:19;;;;;;;10.00;4.72;;;;;;;13.19;52.58;98705.19;1645560;86;21194;-80
2021/04/27 16:02:52;;;;;;;12.10;5.10;;;;;;;13.12;52.58;98697.62;1673571;84;21216;-80
2021/04/27 16:05:22;;;;;;;10.35;5.40;;;;;;;13.07;52.64;98702.20;1680259;84;21754;-81
2021/04/27 16:07:50;;;;;;;10.40;5.30;;;;;;;13.01;52.65;98704.19;1646039;85;21640;-81
2021/04/27 16:10:19;;;;;;;10.48;5.15;;;;;;;12.99;52.95;98706.02;1675497;84;21204;-80
2021/04/27 16:12:48;;;;;;;9.23;4.87;;;;;;;12.95;52.82;98693.55;1645683;85;21257;-82
2021/04/27 16:15:18;;;;;;;8.70;5.00;;;;;;;12.91;52.75;98695.89;1699655;84;21199;-84
2021/04/27 16:17:47;;;;;;;11.33;5.20;;;;;;;12.86;52.69;98701.77;1680075;84;21639;-80
2021/04/27 16:20:15;;;;;;;9.15;4.85;;;;;;;12.78;52.99;98692.94;1675726;84;21176;-81
2021/04/27 16:22:42;;;;;;;11.15;5.55;;;;;;;12.77;52.61;98693.84;1678044;84;21195;-81
2021/04/27 16:25:12;;;;;;;7.97;4.85;;;;;;;12.71;52.74;98703.22;1647144;85;21205;-80
2021/04/27 16:27:40;;;;;;;9.45;4.80;;;;;;;12.61;53.14;98694.91;1667666;86;21199;-80
2021/04/27 16:30:10;;;;;;;12.53;5.25;;;;;;;12.57;53.51;98695.10;1645876;87;21684;-80
2021/04/27 16:32:42;;;;;;;12.37;5.65;;;;;;;12.54;53.64;98698.69;1673485;84;21179;-80
2021/04/27 16:35:12;;;;;;;11.43;5.25;;;;;;;12.54;53.63;98702.13;1673276;86;21196;-81
2021/04/27 16:37:41;;;;;;;8.33;4.87;;;;;;;12.58;53.58;98708.09;1674026;84;21159;-83
2021/04/27 16:40:11;;;;;;;9.73;5.47;;;;;;;12.61;53.29;98701.89;1691693;84;21195;-82
2021/04/27 16:42:39;;;;;;;10.23;5.33;;;;;;;12.57;55.34;98708.14;1673851;84;21654;-82
2021/04/27 16:45:09;;;;;;;10.98;5.37;;;;;;;12.60;55.03;98710.64;1658764;86;21207;-81
2021/04/27 16:47:37;;;;;;;8.78;5.08;;;;;;;12.61;55.17;98707.95;1689307;84;21202;-82
2021/04/27 16:50:08;;;;;;;11.08;5.00;;;;;;;12.61;55.69;98707.11;1700192;84;21192;-82
2021/04/27 16:52:36;;;;;;;9.90;4.83;;;;;;;12.57;55.87;98699.85;1687223;84;21154;-80
2021/04/27 16:55:05;;;;;;;8.53;4.85;;;;;;;12.54;55.95;98704.74;1690239;84;21192;-82
2021/04/27 16:57:33;;;;;;;11.12;5.58;;;;;;;12.52;56.72;98704.42;1679309;84;21624;-82
2021/04/27 17:00:00;;;;;;;8.93;5.28;;;;;;;12.50;56.16;98710.15;1705537;84;21187;-82
2021/04/27 17:02:28;;;;;;;9.78;5.78;;;;;;;12.45;56.16;98715.52;1674439;85;21177;-81
2021/04/27 17:04:57;;;;;;;11.97;5.12;;;;;;;12.41;56.27;98725.67;1684429;84;21202;-81
2021/04/27 17:07:24;;;;;;;8.73;4.72;;;;;;;12.36;56.25;98727.63;1675523;84;21175;-78
2021/04/27 17:09:52;;;;;;;8.63;5.03;;;;;;;12.30;56.16;98724.80;1707363;84;21230;-81
2021/04/27 17:12:19;;;;;;;10.35;5.28;;;;;;;12.25;55.31;98721.96;1673294;84;21232;-80
2021/04/27 17:14:46;;;;;;;9.08;5.40;;;;;;;12.12;57.17;98725.03;1677052;85;21157;-80
2021/04/27 17:17:14;;;;;;;11.38;5.55;;;;;;;12.03;55.66;98728.43;1670124;84;21662;-82
2021/04/27 17:19:42;;;;;;;9.78;5.22;;;;;;;11.93;55.19;98731.82;1673221;85;21202;-80
2021/04/27 17:22:10;;;;;;;10.65;5.33;;;;;;;11.82;56.38;98736.09;1674105;84;21215;-81
2021/04/27 17:24:38;;;;;;;8.40;5.17;;;;;;;11.77;55.67;98738.47;1672671;86;21197;-80
2021/04/27 17:27:05;;;;;;;9.60;5.58;;;;;;;11.69;55.97;98734.83;1681238;84;21670;-82
2021/04/27 17:29:33;;;;;;;15.28;5.37;;;;;;;11.60;56.41;98739.91;1661827;85;21239;-81
2021/04/27 17:32:01;;;;;;;9.58;5.47;;;;;;;11.53;57.56;98731.45;1677648;84;21218;-80
2021/04/27 17:34:29;;;;;;;11.57;5.50;;;;;;;11.47;57.18;98734.73;1673615;85;21153;-81
2021/04/27 17:36:56;;;;;;;11.40;6.22;;;;;;;11.43;56.92;98734.44;1675506;84;21131;-80
2021/04/27 17:39:25;;;;;;;10.50;5.78;;;;;;;11.37;57.39;98737.25;1687699;84;21202;-81
2021/04/27 17:41:53;;;;;;;12.85;5.92;;;;;;;11.30;57.12;98738.77;1677215;84;21186;-80
2021/04/27 17:44:21;;;;;;;11.90;6.45;;;;;;;11.25;57.65;98735.45;1661076;86;21171;-81
2021/04/27 17:46:48;;;;;;;17.15;6.85;;;;;;;11.22;58.27;98745.10;1673007;84;21202;-81
2021/04/27 17:49:17;;;;;;;11.93;6.62;;;;;;;11.17;58.51;98735.32;1690198;84;21477;-80
2021/04/27 17:51:45;;;;;;;20.20;7.75;;;;;;;11.13;58.46;98741.91;1688166;84;21608;-80
2021/04/27 17:54:12;;;;;;;16.27;6.62;;;;;;;11.09;58.96;98735.11;1678604;84;21185;-82
2021/04/27 17:56:39;;;;;;;13.75;7.75;;;;;;;11.07;57.76;98741.27;1682151;84;21183;-81
2021/04/27 17:59:07;;;;;;;17.45;7.28;;;;;;;11.03;58.82;98738.38;1679008;84;21195;-81
2021/04/27 18:01:35;;;;;;;17.00;6.92;;;;;;;11.00;59.21;98735.86;1685557;84;21943;-80
2021/04/27 18:04:05;;;;;;;12.78;7.35;;;;;;;10.98;58.69;98732.45;1644860;87;21210;-81
2021/04/27 18:06:33;;;;;;;19.70;7.15;;;;;;;10.95;58.36;98742.06;1673720;84;21163;-80
2021/04/27 18:09:04;;;;;;;14.07;7.50;;;;;;;10.92;58.78;98743.48;1673731;86;21683;-82
2021/04/27 18:11:31;;;;;;;17.52;7.95;;;;;;;10.90;58.66;98745.70;1645738;86;21179;-81
2021/04/27 18:14:02;;;;;;;15.30;7.83;;;;;;;10.88;59.07;98743.17;1684051;84;21198;-81
2021/04/27 18:16:30;;;;;;;18.80;8.15;;;;;;;10.86;59.71;98747.58;1654699;85;21679;-81
2021/04/27 18:18:59;;;;;;;16.60;8.25;;;;;;;10.85;59.08;98751.52;1684116;84;21191;-82
2021/04/27 18:21:28;;;;;;;20.43;9.90;;;;;;;10.84;59.20;98752.41;1653010;85;21730;-80
2021/04/27 18:23:57;;;;;;;25.15;11.85;;;;;;;10.81;60.41;98755.95;1652700;87;21213;-80
2021/04/27 18:26:25;;;;;;;27.27;12.35;;;;;;;10.79;59.52;98761.66;1680220;85;21151;-83
2021/04/27 18:28:52;;;;;;;34.80;17.48;;;;;;;10.78;59.25;98762.54;1688127;84;21734;-82
2021/04/27 18:31:20;;;;;;;32.35;16.00;;;;;;;10.74;58.89;98760.94;1682447;85;21147;-82
2021/04/27 18:33:47;;;;;;;29.25;14.75;;;;;;;10.70;58.79;98760.20;1680481;85;21662;-80
2021/04/27 18:36:15;;;;;;;36.35;16.02;;;;;;;10.67;60.25;98761.59;1680007;84;21187;-80
2021/04/27 18:38:43;;;;;;;28.55;15.13;;;;;;;10.65;60.16;98762.54;1679732;85;21203;-82
2021/04/27 18:41:11;;;;;;;26.30;14.23;;;;;;;10.64;60.12;98763.42;1692299;84;21238;-81
2021/04/27 18:43:39;;;;;;;23.42;13.50;;;;;;;10.63;59.86;98760.44;1662157;84;21185;-81
2021/04/27 18:46:06;;;;;;;24.27;12.60;;;;;;;10.60;60.12;98762.66;1677969;85;21156;-80
2021/04/27 18:48:34;;;;;;;22.35;13.03;;;;;;;10.60;60.38;98761.82;1679330;85;21202;-81